Annawan, Illinois
Current Conditions -  °F | °C
As of 2:35 PM on Thursday 23 Oct 2014 (Local Time) from KSQI Reporting Station
Overcast Overcast  
Wind Chill: 15°   Ceiling: 6500
Heat Index: 15°   Visibility: 10mi
Dew Point:   Wind: 8mph
Humidity: 59%   Direction: 180°S
Pressure: 30.07"   Gusts: NA
Location:  41.4°N, 89.9°W
Report Text: KSQI 231935Z AUTO 18007KT 150V210 10SM OVC065 15/07 A3007 RMK AO1
Loading
Personal Weather Stations






























Interactive Weather Map
Tropical Storm Tracking
New forecast layout! Learn more

10-Day Weather Forecast

Advertisements
Track Severe Weather on mobile